createdAt,value
2022-12-18T00:00:28.684Z,49.00
2022-12-18T00:01:28.738Z,52.50
2022-12-18T00:02:28.677Z,57.00
2022-12-18T00:03:28.714Z,44.60
2022-12-18T00:04:28.623Z,46.80
2022-12-18T00:05:28.513Z,48.60
2022-12-18T00:06:28.476Z,48.90
2022-12-18T00:07:28.442Z,43.50
2022-12-18T00:08:28.416Z,43.60
2022-12-18T00:09:31.372Z,46.90
2022-12-18T00:10:28.335Z,46.40
2022-12-18T00:11:28.306Z,46.60
2022-12-18T00:12:29.951Z,48.50
2022-12-18T00:13:28.229Z,39.20
2022-12-18T00:14:28.195Z,42.50
2022-12-18T00:15:28.184Z,45.00
2022-12-18T00:16:28.240Z,40.90
2022-12-18T00:17:28.091Z,45.10
2022-12-18T00:18:28.052Z,46.40
2022-12-18T00:19:28.019Z,40.10
2022-12-18T00:20:27.985Z,39.70
2022-12-18T00:21:27.957Z,38.50
2022-12-18T00:22:27.912Z,42.80
2022-12-18T00:23:27.879Z,36.70
2022-12-18T00:24:27.842Z,40.90
2022-12-18T00:25:27.827Z,42.40
2022-12-18T00:26:27.779Z,38.40
2022-12-18T00:27:27.741Z,36.90
2022-12-18T00:28:27.705Z,38.10
2022-12-18T00:29:27.667Z,41.40
2022-12-18T00:30:27.635Z,38.20
2022-12-18T00:31:27.672Z,40.00
2022-12-18T00:32:27.561Z,38.60
2022-12-18T00:33:27.529Z,39.40
2022-12-18T00:34:27.491Z,39.80
2022-12-18T00:35:27.460Z,39.20
2022-12-18T00:36:27.419Z,38.40
2022-12-18T00:37:27.386Z,40.60
2022-12-18T00:38:27.354Z,40.90
2022-12-18T00:39:27.325Z,38.80
2022-12-18T00:40:27.279Z,48.10
2022-12-18T00:41:27.251Z,38.90
2022-12-18T00:42:27.210Z,39.00
2022-12-18T00:43:27.233Z,40.10
2022-12-18T00:44:27.138Z,42.40
2022-12-18T00:45:27.153Z,43.20
2022-12-18T00:46:27.070Z,40.00
2022-12-18T00:47:27.054Z,43.80
2022-12-18T00:48:26.998Z,46.90
2022-12-18T00:49:26.962Z,47.10
2022-12-18T00:50:26.933Z,45.10
2022-12-18T00:51:26.891Z,45.80
2022-12-18T00:52:26.854Z,45.50
2022-12-18T00:53:26.821Z,48.50
2022-12-18T00:54:26.785Z,47.00
2022-12-18T00:55:26.751Z,45.20
2022-12-18T00:56:26.713Z,41.20
2022-12-18T00:57:26.680Z,43.70
2022-12-18T00:58:26.643Z,41.20
2022-12-18T00:59:26.608Z,40.30
2022-12-18T01:00:26.575Z,43.00
2022-12-18T01:01:26.679Z,44.80
2022-12-18T01:02:26.629Z,43.60
2022-12-18T01:03:26.490Z,40.50
2022-12-18T01:04:26.435Z,39.30
2022-12-18T01:05:26.401Z,40.10
2022-12-18T01:06:26.363Z,35.70
2022-12-18T01:07:26.332Z,36.60
2022-12-18T01:08:26.290Z,39.00
2022-12-18T01:09:26.257Z,38.40
2022-12-18T01:10:26.220Z,44.10
2022-12-18T01:11:26.194Z,42.40
2022-12-18T01:12:26.152Z,45.90
2022-12-18T01:13:26.114Z,43.10
2022-12-18T01:14:26.080Z,36.50
2022-12-18T01:15:26.044Z,35.90
2022-12-18T01:16:26.063Z,31.50
2022-12-18T01:17:25.973Z,34.60
2022-12-18T01:18:25.937Z,31.90
2022-12-18T01:19:25.921Z,37.50
2022-12-18T01:20:25.866Z,35.80
2022-12-18T01:21:25.833Z,37.50
2022-12-18T01:22:25.801Z,34.50
2022-12-18T01:23:25.758Z,39.20
2022-12-18T01:24:25.724Z,38.60
2022-12-18T01:25:25.689Z,40.40
2022-12-18T01:26:25.655Z,37.90
2022-12-18T01:27:25.620Z,34.20
2022-12-18T01:28:25.581Z,38.40
2022-12-18T01:29:25.546Z,38.80
2022-12-18T01:30:25.511Z,36.90
2022-12-18T01:31:25.564Z,35.20
2022-12-18T01:32:25.445Z,40.30
2022-12-18T01:33:25.407Z,35.70
2022-12-18T01:34:25.370Z,36.90
2022-12-18T01:35:25.333Z,35.20
2022-12-18T01:36:25.298Z,31.60
2022-12-18T01:37:25.264Z,34.60
2022-12-18T01:38:25.229Z,36.50
2022-12-18T01:39:25.199Z,46.10
2022-12-18T01:40:25.156Z,41.20
2022-12-18T01:41:25.123Z,34.50
2022-12-18T01:42:25.084Z,38.70
2022-12-18T01:43:25.050Z,36.60
2022-12-18T01:44:25.015Z,34.60
2022-12-18T01:45:24.980Z,43.90
2022-12-18T01:46:24.944Z,37.30
2022-12-18T01:47:24.911Z,37.00
2022-12-18T01:48:24.872Z,36.10
2022-12-18T01:49:24.839Z,37.30
2022-12-18T01:50:24.802Z,35.20
2022-12-18T01:51:24.769Z,37.40
2022-12-18T01:52:24.731Z,34.10
2022-12-18T01:53:24.702Z,35.30
2022-12-18T01:54:24.659Z,35.80
2022-12-18T01:55:24.638Z,34.30
2022-12-18T01:56:24.594Z,35.90
2022-12-18T01:57:24.553Z,34.20
2022-12-18T01:58:24.520Z,35.80
2022-12-18T01:59:24.486Z,34.60
2022-12-18T02:00:24.447Z,31.80
2022-12-18T02:01:24.528Z,38.90
2022-12-18T02:02:24.491Z,33.10
2022-12-18T02:03:24.433Z,33.50
2022-12-18T02:04:24.306Z,36.30
2022-12-18T02:05:24.274Z,35.40
2022-12-18T02:06:24.233Z,36.00
2022-12-18T02:07:24.201Z,34.40
2022-12-18T02:08:24.165Z,34.10
2022-12-18T02:09:24.131Z,37.40
2022-12-18T02:10:24.095Z,36.10
2022-12-18T02:11:24.060Z,33.00
2022-12-18T02:12:24.025Z,32.20
2022-12-18T02:13:24.115Z,44.40
2022-12-18T02:14:23.954Z,38.70
2022-12-18T02:15:23.918Z,40.30
2022-12-18T02:16:23.915Z,37.90
2022-12-18T02:17:23.868Z,34.40
2022-12-18T02:18:23.814Z,37.20
2022-12-18T02:19:23.779Z,34.60
2022-12-18T02:20:23.749Z,32.90
2022-12-18T02:21:23.710Z,39.50
2022-12-18T02:22:23.670Z,39.00
2022-12-18T02:23:23.637Z,38.10
2022-12-18T02:24:23.602Z,32.20
2022-12-18T02:25:23.569Z,34.80
2022-12-18T02:26:23.531Z,34.20
2022-12-18T02:27:23.496Z,40.60
2022-12-18T02:28:23.461Z,33.80
2022-12-18T02:29:23.547Z,36.00
2022-12-18T02:30:23.480Z,34.40
2022-12-18T02:31:23.357Z,35.50
2022-12-18T02:32:23.347Z,34.80
2022-12-18T02:33:23.282Z,38.00
2022-12-18T02:34:23.251Z,36.80
2022-12-18T02:35:23.217Z,36.30
2022-12-18T02:36:23.180Z,36.50
2022-12-18T02:37:23.141Z,36.40
2022-12-18T02:38:23.106Z,38.60
2022-12-18T02:39:23.071Z,35.40
2022-12-18T02:40:23.037Z,39.70
2022-12-18T02:41:22.999Z,39.30
2022-12-18T02:42:22.968Z,35.80
2022-12-18T02:43:22.930Z,37.70
2022-12-18T02:44:22.895Z,40.70
2022-12-18T02:45:22.973Z,40.70
2022-12-18T02:46:22.826Z,36.40
2022-12-18T02:47:22.791Z,39.20
2022-12-18T02:48:22.754Z,39.90
2022-12-18T02:49:22.719Z,40.30
2022-12-18T02:50:22.686Z,40.40
2022-12-18T02:51:22.648Z,34.10
2022-12-18T02:52:22.614Z,35.00
2022-12-18T02:53:22.579Z,35.90
2022-12-18T02:54:22.543Z,35.90
2022-12-18T02:55:22.507Z,34.50
2022-12-18T02:56:22.473Z,40.00
2022-12-18T02:57:22.435Z,39.80
2022-12-18T02:58:22.402Z,34.10
2022-12-18T02:59:22.372Z,35.40
2022-12-18T03:00:22.333Z,37.40
2022-12-18T03:01:22.556Z,36.70
2022-12-18T03:02:22.477Z,40.20
2022-12-18T03:03:22.272Z,35.10
2022-12-18T03:04:22.191Z,39.90
2022-12-18T03:05:22.155Z,39.80
2022-12-18T03:06:22.127Z,36.90
2022-12-18T03:07:22.085Z,34.30
2022-12-18T03:08:22.049Z,36.50
2022-12-18T03:09:22.014Z,36.90
2022-12-18T03:10:21.980Z,35.70
2022-12-18T03:11:21.943Z,35.80
2022-12-18T03:12:21.909Z,33.60
2022-12-18T03:13:21.874Z,32.90
2022-12-18T03:14:21.847Z,31.30
2022-12-18T03:15:21.808Z,37.80
2022-12-18T03:16:21.850Z,36.70
2022-12-18T03:17:21.842Z,35.10
2022-12-18T03:18:21.700Z,37.10
2022-12-18T03:19:21.663Z,33.50
2022-12-18T03:20:21.626Z,34.40
2022-12-18T03:21:21.589Z,33.60
2022-12-18T03:22:21.558Z,34.30
2022-12-18T03:23:25.986Z,33.30
2022-12-18T03:24:21.486Z,35.40
2022-12-18T03:25:21.451Z,34.00
2022-12-18T03:26:21.417Z,34.50
2022-12-18T03:27:21.381Z,33.40
2022-12-18T03:28:21.346Z,34.10
2022-12-18T03:29:21.311Z,34.10
2022-12-18T03:30:21.279Z,33.90
2022-12-18T03:31:21.298Z,34.60
2022-12-18T03:32:21.207Z,33.50
2022-12-18T03:33:21.288Z,30.10
2022-12-18T03:34:21.137Z,31.50
2022-12-18T03:35:21.098Z,36.40
2022-12-18T03:36:21.062Z,32.50
2022-12-18T03:37:21.028Z,33.60
2022-12-18T03:38:20.991Z,32.60
2022-12-18T03:39:20.954Z,31.80
2022-12-18T03:40:20.920Z,32.60
2022-12-18T03:41:20.886Z,31.00
2022-12-18T03:42:20.852Z,31.20
2022-12-18T03:43:20.815Z,32.90
2022-12-18T03:44:20.780Z,35.00
2022-12-18T03:45:20.744Z,32.80
2022-12-18T03:46:20.755Z,34.20
2022-12-18T03:47:20.674Z,30.40
2022-12-18T03:48:20.641Z,34.20
2022-12-18T03:49:20.721Z,32.10
2022-12-18T03:50:20.569Z,30.00
2022-12-18T03:51:20.534Z,31.10
2022-12-18T03:52:20.499Z,36.90
2022-12-18T03:53:20.461Z,31.30
2022-12-18T03:54:20.430Z,30.50
2022-12-18T03:55:20.391Z,29.70
2022-12-18T03:56:20.356Z,30.50
2022-12-18T03:57:20.319Z,34.80
2022-12-18T03:58:20.287Z,34.80
2022-12-18T03:59:20.250Z,33.60
2022-12-18T04:00:20.217Z,33.80
2022-12-18T04:01:20.306Z,35.90
2022-12-18T04:02:20.325Z,34.30
2022-12-18T04:03:23.997Z,31.50
2022-12-18T04:04:20.075Z,33.40
2022-12-18T04:05:25.236Z,32.70
2022-12-18T04:06:20.125Z,31.50
2022-12-18T04:07:19.972Z,31.80
2022-12-18T04:08:19.935Z,33.60
2022-12-18T04:09:19.896Z,31.90
2022-12-18T04:10:19.869Z,30.70
2022-12-18T04:11:19.827Z,31.70
2022-12-18T04:12:19.793Z,30.30
2022-12-18T04:13:19.755Z,30.80
2022-12-18T04:14:19.722Z,32.90
2022-12-18T04:15:19.687Z,33.20
2022-12-18T04:16:19.698Z,32.80
2022-12-18T04:17:19.614Z,30.70
2022-12-18T04:18:19.580Z,30.40
2022-12-18T04:19:19.543Z,28.90
2022-12-18T04:20:19.510Z,31.00
2022-12-18T04:21:19.472Z,29.60
2022-12-18T04:22:19.551Z,33.80
2022-12-18T04:23:19.404Z,32.00
2022-12-18T04:24:19.373Z,29.50
2022-12-18T04:25:19.345Z,33.00
2022-12-18T04:26:19.299Z,30.90
2022-12-18T04:27:19.262Z,31.90
2022-12-18T04:28:19.228Z,30.70
2022-12-18T04:29:19.192Z,30.00
2022-12-18T04:30:19.159Z,29.60
2022-12-18T04:31:19.188Z,26.90
2022-12-18T04:32:19.087Z,29.00
2022-12-18T04:33:19.049Z,33.30
2022-12-18T04:34:19.018Z,30.90
2022-12-18T04:35:18.981Z,30.60
2022-12-18T04:36:18.945Z,28.80
2022-12-18T04:37:18.907Z,28.90
2022-12-18T04:38:24.764Z,31.30
2022-12-18T04:39:18.949Z,30.10
2022-12-18T04:40:18.804Z,26.80
2022-12-18T04:41:18.768Z,28.50
2022-12-18T04:42:18.733Z,24.80
2022-12-18T04:43:18.759Z,26.80
2022-12-18T04:44:18.664Z,25.80
2022-12-18T04:45:18.625Z,26.60
2022-12-18T04:46:18.632Z,27.30
2022-12-18T04:47:18.557Z,26.70
2022-12-18T04:48:18.523Z,28.30
2022-12-18T04:49:18.484Z,28.00
2022-12-18T04:50:18.452Z,22.80
2022-12-18T04:51:23.320Z,24.50
2022-12-18T04:52:18.384Z,27.20
2022-12-18T04:53:18.343Z,24.70
2022-12-18T04:54:18.310Z,29.10
2022-12-18T04:55:18.391Z,25.20
2022-12-18T04:56:18.240Z,25.80
2022-12-18T04:57:18.200Z,22.20
2022-12-18T04:58:18.170Z,23.40
2022-12-18T04:59:18.131Z,24.20
2022-12-18T05:00:18.099Z,22.80
2022-12-18T05:01:18.156Z,24.70
2022-12-18T05:02:18.196Z,25.70
2022-12-18T05:03:18.077Z,27.70
2022-12-18T05:04:18.011Z,25.60
2022-12-18T05:05:17.919Z,24.90
2022-12-18T05:06:17.888Z,22.00
2022-12-18T05:07:17.847Z,23.70
2022-12-18T05:08:17.815Z,23.70
2022-12-18T05:09:17.777Z,22.50
2022-12-18T05:10:17.744Z,23.40
2022-12-18T05:11:17.828Z,23.50
2022-12-18T05:12:17.674Z,22.50
2022-12-18T05:13:17.637Z,24.10
2022-12-18T05:14:17.604Z,25.50
2022-12-18T05:15:17.569Z,24.80
2022-12-18T05:16:17.707Z,26.00
2022-12-18T05:17:17.497Z,22.00
2022-12-18T05:18:17.462Z,18.80
2022-12-18T05:19:17.425Z,25.80
2022-12-18T05:20:17.391Z,20.40
2022-12-18T05:21:17.360Z,19.60
2022-12-18T05:22:17.322Z,22.30
2022-12-18T05:23:17.286Z,25.10
2022-12-18T05:24:17.265Z,23.90
2022-12-18T05:25:17.221Z,23.20
2022-12-18T05:26:17.178Z,20.30
2022-12-18T05:27:17.257Z,20.00
2022-12-18T05:28:17.110Z,20.10
2022-12-18T05:29:17.123Z,21.80
2022-12-18T05:30:17.041Z,20.70
2022-12-18T05:31:17.079Z,24.50
2022-12-18T05:32:16.972Z,23.80
2022-12-18T05:33:16.932Z,23.20
2022-12-18T05:34:16.896Z,22.60
2022-12-18T05:35:16.859Z,19.40
2022-12-18T05:36:16.823Z,21.00
2022-12-18T05:37:16.786Z,18.90
2022-12-18T05:38:16.752Z,20.80
2022-12-18T05:39:16.718Z,17.40
2022-12-18T05:40:16.680Z,16.80
2022-12-18T05:41:16.643Z,19.00
2022-12-18T05:42:16.610Z,19.50
2022-12-18T05:43:22.512Z,18.60
2022-12-18T05:44:16.656Z,20.70
2022-12-18T05:45:16.505Z,18.40
2022-12-18T05:46:16.509Z,16.30
2022-12-18T05:47:16.432Z,14.70
2022-12-18T05:48:16.403Z,16.00
2022-12-18T05:49:16.363Z,17.40
2022-12-18T05:50:16.328Z,17.90
2022-12-18T05:51:16.293Z,17.90
2022-12-18T05:52:16.268Z,17.50
2022-12-18T05:53:16.218Z,17.00
2022-12-18T05:54:16.188Z,16.60
2022-12-18T05:55:16.149Z,18.90
2022-12-18T05:56:16.113Z,18.50
2022-12-18T05:57:16.081Z,15.90
2022-12-18T05:58:16.044Z,18.30
2022-12-18T05:59:16.011Z,17.10
2022-12-18T06:00:16.090Z,15.10
2022-12-18T06:01:16.011Z,17.70
2022-12-18T06:02:16.073Z,17.90
2022-12-18T06:03:15.981Z,15.50
2022-12-18T06:04:15.969Z,18.60
2022-12-18T06:05:15.794Z,17.30
2022-12-18T06:06:15.770Z,18.40
2022-12-18T06:07:15.723Z,16.70
2022-12-18T06:08:15.691Z,18.40
2022-12-18T06:09:15.652Z,17.10
2022-12-18T06:10:15.621Z,16.90
2022-12-18T06:11:15.581Z,19.10
2022-12-18T06:12:15.557Z,17.30
2022-12-18T06:13:15.513Z,17.10
2022-12-18T06:14:15.477Z,16.90
2022-12-18T06:15:15.442Z,16.40
2022-12-18T06:16:15.598Z,16.90
2022-12-18T06:17:15.371Z,14.20
2022-12-18T06:18:15.339Z,13.00
2022-12-18T06:19:15.302Z,16.70
2022-12-18T06:20:15.268Z,15.10
2022-12-18T06:21:15.228Z,15.00
2022-12-18T06:22:15.198Z,15.60
2022-12-18T06:23:15.157Z,18.50
2022-12-18T06:24:15.126Z,17.10
2022-12-18T06:25:15.089Z,17.80
2022-12-18T06:26:15.055Z,18.10
2022-12-18T06:27:15.017Z,14.50
2022-12-18T06:28:14.987Z,15.40
2022-12-18T06:29:14.947Z,17.10
2022-12-18T06:30:14.912Z,17.40
2022-12-18T06:31:14.964Z,18.90
2022-12-18T06:32:14.959Z,18.80
2022-12-18T06:33:14.805Z,16.10
2022-12-18T06:34:14.773Z,19.90
2022-12-18T06:35:14.734Z,14.20
2022-12-18T06:36:14.699Z,17.10
2022-12-18T06:37:14.664Z,14.30
2022-12-18T06:38:14.630Z,18.10
2022-12-18T06:39:14.593Z,15.10
2022-12-18T06:40:14.593Z,18.10
2022-12-18T06:41:14.521Z,15.90
2022-12-18T06:42:14.489Z,18.20
2022-12-18T06:43:14.454Z,15.70
2022-12-18T06:44:14.419Z,17.80
2022-12-18T06:45:14.470Z,16.70
2022-12-18T06:46:14.465Z,16.30
2022-12-18T06:47:14.311Z,17.50
2022-12-18T06:48:14.394Z,16.80
2022-12-18T06:49:14.243Z,17.30
2022-12-18T06:50:14.204Z,17.40
2022-12-18T06:51:14.172Z,16.40
2022-12-18T06:52:14.134Z,14.30
2022-12-18T06:53:14.099Z,18.40
2022-12-18T06:54:14.065Z,14.10
2022-12-18T06:55:14.030Z,14.40
2022-12-18T06:56:13.992Z,18.50
2022-12-18T06:57:13.960Z,19.20
2022-12-18T06:58:13.925Z,15.20
2022-12-18T06:59:13.890Z,15.40
2022-12-18T07:00:13.853Z,12.70
2022-12-18T07:01:13.879Z,14.90
2022-12-18T07:02:13.974Z,13.60
2022-12-18T07:03:13.777Z,13.90
2022-12-18T07:04:13.834Z,11.10
2022-12-18T07:05:13.680Z,12.60
2022-12-18T07:06:13.644Z,11.20
2022-12-18T07:07:13.608Z,11.90
2022-12-18T07:08:13.570Z,14.00
2022-12-18T07:09:13.558Z,13.20
2022-12-18T07:10:13.506Z,18.00
2022-12-18T07:11:13.469Z,21.10
2022-12-18T07:12:13.433Z,34.10
2022-12-18T07:13:13.398Z,64.40
2022-12-18T07:14:13.359Z,56.00
2022-12-18T07:15:13.329Z,38.40
2022-12-18T07:16:20.810Z,32.20
2022-12-18T07:17:13.364Z,28.90
2022-12-18T07:18:13.222Z,24.70
2022-12-18T07:19:13.186Z,24.10
2022-12-18T07:20:13.267Z,17.50
2022-12-18T07:21:13.117Z,16.20
2022-12-18T07:22:13.080Z,17.30
2022-12-18T07:23:13.048Z,20.30
2022-12-18T07:24:13.007Z,18.70
2022-12-18T07:25:12.975Z,20.90
2022-12-18T07:26:12.937Z,19.40
2022-12-18T07:27:12.906Z,15.70
2022-12-18T07:28:17.177Z,18.80
2022-12-18T07:29:12.834Z,18.90
2022-12-18T07:30:12.797Z,17.50
2022-12-18T07:31:12.855Z,17.40
2022-12-18T07:32:12.730Z,18.20
2022-12-18T07:33:12.694Z,14.60
2022-12-18T07:34:12.663Z,14.50
2022-12-18T07:35:12.624Z,17.70
2022-12-18T07:36:12.703Z,15.40
2022-12-18T07:37:12.556Z,14.30
2022-12-18T07:38:12.516Z,14.30
2022-12-18T07:39:12.483Z,15.30
2022-12-18T07:40:12.447Z,19.40
2022-12-18T07:41:12.412Z,15.40
2022-12-18T07:42:12.377Z,16.40
2022-12-18T07:43:12.343Z,31.00
2022-12-18T07:44:12.309Z,36.30
2022-12-18T07:45:12.273Z,35.70
2022-12-18T07:46:13.505Z,29.40
2022-12-18T07:47:12.498Z,24.60
2022-12-18T07:48:12.164Z,21.00
2022-12-18T07:49:12.130Z,17.30
2022-12-18T07:50:12.096Z,22.30
2022-12-18T07:51:12.063Z,19.50
2022-12-18T07:52:12.141Z,21.20
2022-12-18T07:53:11.989Z,18.10
2022-12-18T07:54:11.953Z,15.50
2022-12-18T07:55:11.920Z,15.80
2022-12-18T07:56:27.195Z,19.30
2022-12-18T07:57:27.399Z,19.00
2022-12-18T07:58:11.813Z,18.20
2022-12-18T07:59:11.884Z,18.10
2022-12-18T08:00:11.739Z,15.10
2022-12-18T08:01:11.807Z,14.60
2022-12-18T08:02:11.903Z,15.00
2022-12-18T08:03:11.671Z,13.90
2022-12-18T08:04:11.600Z,14.10
2022-12-18T08:05:11.564Z,14.60
2022-12-18T08:06:11.529Z,20.60
2022-12-18T08:07:11.493Z,17.00
2022-12-18T08:08:11.568Z,15.20
2022-12-18T08:09:11.429Z,20.20
2022-12-18T08:10:11.388Z,19.30
2022-12-18T08:11:11.356Z,25.90
2022-12-18T08:12:11.317Z,24.30
2022-12-18T08:13:11.285Z,30.80
2022-12-18T08:14:11.249Z,23.70
2022-12-18T08:15:11.217Z,29.60
2022-12-18T08:16:11.267Z,22.20
2022-12-18T08:17:11.146Z,28.50
2022-12-18T08:18:14.202Z,24.70
2022-12-18T08:19:11.073Z,23.90
2022-12-18T08:20:11.035Z,22.80
2022-12-18T08:21:11.001Z,22.10
2022-12-18T08:22:10.962Z,21.30
2022-12-18T08:23:10.939Z,21.30
2022-12-18T08:24:11.007Z,22.10
2022-12-18T08:25:10.861Z,18.60
2022-12-18T08:26:10.827Z,20.10
2022-12-18T08:27:28.809Z,19.50
2022-12-18T08:28:10.753Z,16.00
2022-12-18T08:29:10.724Z,19.60
2022-12-18T08:30:10.683Z,17.20
2022-12-18T08:31:10.709Z,15.40
2022-12-18T08:32:10.675Z,16.80
2022-12-18T08:33:10.579Z,19.20
2022-12-18T08:34:10.545Z,16.00
2022-12-18T08:35:10.511Z,15.60
2022-12-18T08:36:10.471Z,17.10
2022-12-18T08:37:10.437Z,18.00
2022-12-18T08:38:10.402Z,15.10
2022-12-18T08:39:10.367Z,18.50
2022-12-18T08:40:10.447Z,17.30
2022-12-18T08:41:10.297Z,17.20
2022-12-18T08:42:10.563Z,17.60
2022-12-18T08:43:10.231Z,17.70
2022-12-18T08:44:10.194Z,20.70
2022-12-18T08:45:10.158Z,16.30
2022-12-18T08:46:10.177Z,17.60
2022-12-18T08:47:10.086Z,19.50
2022-12-18T08:48:10.054Z,15.90
2022-12-18T08:49:10.015Z,20.30
2022-12-18T08:50:09.996Z,19.50
2022-12-18T08:51:09.949Z,21.00
2022-12-18T08:52:09.937Z,19.10
2022-12-18T08:53:09.873Z,18.70
2022-12-18T08:54:09.838Z,19.10
2022-12-18T08:55:09.806Z,17.50
2022-12-18T08:56:09.885Z,21.20
2022-12-18T08:57:09.733Z,20.60
2022-12-18T08:58:09.705Z,20.50
2022-12-18T08:59:13.160Z,22.70
2022-12-18T09:00:09.627Z,25.20
2022-12-18T09:01:09.635Z,23.30
2022-12-18T09:02:09.790Z,26.30
2022-12-18T09:03:09.592Z,24.20
2022-12-18T09:04:09.489Z,25.80
2022-12-18T09:05:09.455Z,24.70
2022-12-18T09:06:09.418Z,28.50
2022-12-18T09:07:09.386Z,26.50
2022-12-18T09:08:09.351Z,23.00
2022-12-18T09:09:09.315Z,22.90
2022-12-18T09:10:09.276Z,21.00
2022-12-18T09:11:09.242Z,20.30
2022-12-18T09:12:09.334Z,19.10
2022-12-18T09:13:09.172Z,22.20
2022-12-18T09:14:09.141Z,17.50
2022-12-18T09:15:09.105Z,17.90
2022-12-18T09:16:09.067Z,16.10
2022-12-18T09:17:09.127Z,18.20
2022-12-18T09:18:09.000Z,15.10
2022-12-18T09:19:08.967Z,15.90
2022-12-18T09:20:08.924Z,15.50
2022-12-18T09:21:08.895Z,17.50
2022-12-18T09:22:08.856Z,18.40
2022-12-18T09:23:08.821Z,17.70
2022-12-18T09:24:09.248Z,17.00
2022-12-18T09:25:08.755Z,19.50
2022-12-18T09:26:08.717Z,16.80
2022-12-18T09:27:08.682Z,16.90
2022-12-18T09:28:09.055Z,14.90
2022-12-18T09:29:08.613Z,15.20
2022-12-18T09:30:08.578Z,15.40
2022-12-18T09:31:08.715Z,14.80
2022-12-18T09:32:08.510Z,17.90
2022-12-18T09:33:08.502Z,16.50
2022-12-18T09:34:08.435Z,15.20
2022-12-18T09:35:08.432Z,15.20
2022-12-18T09:36:08.371Z,16.50
2022-12-18T09:37:08.334Z,13.40
2022-12-18T09:38:08.298Z,15.20
2022-12-18T09:39:09.092Z,15.40
2022-12-18T09:40:08.231Z,13.20
2022-12-18T09:41:08.198Z,17.50
2022-12-18T09:42:08.169Z,18.50
2022-12-18T09:43:08.423Z,17.50
2022-12-18T09:44:08.218Z,13.80
2022-12-18T09:45:08.143Z,16.30
2022-12-18T09:46:08.096Z,18.40
2022-12-18T09:47:07.988Z,17.80
2022-12-18T09:48:07.954Z,17.70
2022-12-18T09:49:07.920Z,12.80
2022-12-18T09:50:11.584Z,14.90
2022-12-18T09:51:07.853Z,15.60
2022-12-18T09:52:07.824Z,15.70
2022-12-18T09:53:07.781Z,14.60
2022-12-18T09:54:07.746Z,17.10
2022-12-18T09:55:07.712Z,17.80
2022-12-18T09:56:07.677Z,14.50
2022-12-18T09:57:07.646Z,15.10
2022-12-18T09:58:07.616Z,17.20
2022-12-18T09:59:07.575Z,16.00
2022-12-18T10:00:07.658Z,16.10
2022-12-18T10:01:07.630Z,15.40
2022-12-18T10:02:07.582Z,16.50
2022-12-18T10:03:07.586Z,16.40
2022-12-18T10:04:07.475Z,15.80
2022-12-18T10:05:07.383Z,16.40
2022-12-18T10:06:07.342Z,14.30
2022-12-18T10:07:09.272Z,16.40
2022-12-18T10:08:07.271Z,15.10
2022-12-18T10:09:07.238Z,15.60
2022-12-18T10:10:07.205Z,16.90
2022-12-18T10:11:07.173Z,14.30
2022-12-18T10:12:07.145Z,17.30
2022-12-18T10:13:07.104Z,18.30
2022-12-18T10:14:07.065Z,16.10
2022-12-18T10:15:07.039Z,15.80
2022-12-18T10:16:07.145Z,13.30
2022-12-18T10:17:06.970Z,14.30
2022-12-18T10:18:06.932Z,16.00
2022-12-18T10:19:06.900Z,15.80
2022-12-18T10:20:06.878Z,14.80
2022-12-18T10:21:06.833Z,16.40
2022-12-18T10:22:06.796Z,13.20
2022-12-18T10:23:06.765Z,16.60
2022-12-18T10:24:06.731Z,14.60
2022-12-18T10:25:06.699Z,15.40
2022-12-18T10:26:06.660Z,16.10
2022-12-18T10:27:06.631Z,16.30
2022-12-18T10:28:06.598Z,14.10
2022-12-18T10:29:06.565Z,17.50
2022-12-18T10:30:06.526Z,14.90
2022-12-18T10:31:06.557Z,16.20
2022-12-18T10:32:06.580Z,16.60
2022-12-18T10:33:06.427Z,13.90
2022-12-18T10:34:06.407Z,12.70
2022-12-18T10:35:06.361Z,12.90
2022-12-18T10:36:06.416Z,12.80
2022-12-18T10:37:06.347Z,13.80
2022-12-18T10:38:06.338Z,16.30
2022-12-18T10:39:06.249Z,15.80
2022-12-18T10:40:06.223Z,14.40
2022-12-18T10:41:06.162Z,15.70
2022-12-18T10:42:06.208Z,16.50
2022-12-18T10:43:06.089Z,16.90
2022-12-18T10:44:06.056Z,19.00
2022-12-18T10:45:06.023Z,16.00
2022-12-18T10:46:06.031Z,16.90
2022-12-18T10:47:10.168Z,14.70
2022-12-18T10:48:06.043Z,18.70
2022-12-18T10:49:05.885Z,16.00
2022-12-18T10:50:05.851Z,15.30
2022-12-18T10:51:13.631Z,17.80
2022-12-18T10:52:05.784Z,14.30
2022-12-18T10:53:05.753Z,15.10
2022-12-18T10:54:06.275Z,16.20
2022-12-18T10:55:05.687Z,14.00
2022-12-18T10:56:05.651Z,15.90
2022-12-18T10:57:05.616Z,15.60
2022-12-18T10:58:05.581Z,15.10
2022-12-18T10:59:05.910Z,15.40
2022-12-18T11:00:05.518Z,14.20
2022-12-18T11:01:05.482Z,15.80
2022-12-18T11:02:05.555Z,15.60
2022-12-18T11:03:05.625Z,15.10
2022-12-18T11:04:05.568Z,14.70
2022-12-18T11:05:05.345Z,15.30
2022-12-18T11:06:05.313Z,15.20
2022-12-18T11:07:05.307Z,13.90
2022-12-18T11:08:05.247Z,14.80
2022-12-18T11:09:12.339Z,12.70
2022-12-18T11:10:05.177Z,14.80
2022-12-18T11:11:05.206Z,15.50
2022-12-18T11:12:05.108Z,13.60
2022-12-18T11:13:05.078Z,13.60
2022-12-18T11:14:05.072Z,13.80
2022-12-18T11:15:05.039Z,12.10
2022-12-18T11:16:05.021Z,13.10
2022-12-18T11:18:04.908Z,13.50
2022-12-18T11:19:04.881Z,12.80
2022-12-18T11:20:04.954Z,11.20
2022-12-18T11:21:04.806Z,15.30
2022-12-18T11:22:04.805Z,11.80
2022-12-18T11:23:04.741Z,12.10
2022-12-18T11:24:04.713Z,15.40
2022-12-18T11:26:04.651Z,12.50
2022-12-18T11:27:04.606Z,16.70
2022-12-18T11:28:04.573Z,12.60
2022-12-18T11:29:04.534Z,11.00
2022-12-18T11:30:04.505Z,13.60
2022-12-18T11:31:04.520Z,15.50
2022-12-18T11:32:04.436Z,17.10
2022-12-18T11:33:04.402Z,19.70
2022-12-18T11:34:28.067Z,16.60
2022-12-18T11:35:04.335Z,15.30
2022-12-18T11:36:04.415Z,14.50
2022-12-18T11:37:04.268Z,15.80
2022-12-18T11:38:04.236Z,17.90
2022-12-18T11:39:04.199Z,15.40
2022-12-18T11:40:04.168Z,17.10
2022-12-18T11:41:04.133Z,16.30
2022-12-18T11:42:04.099Z,15.00
2022-12-18T11:43:04.066Z,14.90
2022-12-18T11:44:04.032Z,14.90
2022-12-18T11:45:04.403Z,23.60
2022-12-18T11:46:04.019Z,27.40
2022-12-18T11:47:03.974Z,19.20
2022-12-18T11:48:03.918Z,16.90
2022-12-18T11:49:03.969Z,18.90
2022-12-18T11:50:03.834Z,31.30
2022-12-18T11:51:03.825Z,25.40
2022-12-18T11:52:09.689Z,36.70
2022-12-18T11:53:09.723Z,50.90
2022-12-18T11:54:03.812Z,25.20
2022-12-18T11:55:03.669Z,23.10
2022-12-18T11:56:03.629Z,31.30
2022-12-18T11:57:03.595Z,33.90
2022-12-18T11:58:03.565Z,38.20
2022-12-18T11:59:03.539Z,30.70
2022-12-18T12:00:03.499Z,25.20
2022-12-18T12:01:03.463Z,21.80
2022-12-18T12:02:03.565Z,17.50
2022-12-18T12:03:03.440Z,15.10
2022-12-18T12:04:03.417Z,14.60
2022-12-18T12:05:03.328Z,13.20
2022-12-18T12:06:03.297Z,14.00
2022-12-18T12:07:03.642Z,15.50
2022-12-18T12:08:03.232Z,15.20
2022-12-18T12:09:03.231Z,19.20
2022-12-18T12:10:03.280Z,19.90
2022-12-18T12:11:03.126Z,23.30
2022-12-18T12:12:03.097Z,16.80
2022-12-18T12:13:03.064Z,16.10
2022-12-18T12:14:03.028Z,13.50
2022-12-18T12:15:02.993Z,16.20
2022-12-18T12:16:03.005Z,24.10
2022-12-18T12:17:02.929Z,21.00
2022-12-18T12:18:06.839Z,19.00
2022-12-18T12:19:02.860Z,17.00
2022-12-18T12:20:02.828Z,12.00
2022-12-18T12:21:02.793Z,11.00
2022-12-18T12:22:02.763Z,11.50
2022-12-18T12:23:02.726Z,11.80
2022-12-18T12:24:02.714Z,11.70
2022-12-18T12:25:02.660Z,13.70
2022-12-18T12:26:02.738Z,11.40
2022-12-18T12:27:02.592Z,15.00
2022-12-18T12:28:02.565Z,14.10
2022-12-18T12:29:02.526Z,10.50
2022-12-18T12:30:02.495Z,11.70
2022-12-18T12:31:02.461Z,10.60
2022-12-18T12:32:02.460Z,10.20
2022-12-18T12:33:02.391Z,12.90
2022-12-18T12:34:02.362Z,11.30
2022-12-18T12:35:07.702Z,13.90
2022-12-18T12:36:02.294Z,11.40
2022-12-18T12:37:02.257Z,12.20
2022-12-18T12:38:02.225Z,11.70
2022-12-18T12:39:02.196Z,11.60
2022-12-18T12:40:10.992Z,10.70
2022-12-18T12:41:03.345Z,11.10
2022-12-18T12:42:02.204Z,13.50
2022-12-18T12:43:02.075Z,15.10
2022-12-18T12:44:02.025Z,15.30
2022-12-18T12:45:01.991Z,14.80
2022-12-18T12:46:02.009Z,18.70
2022-12-18T12:47:01.926Z,14.40
2022-12-18T12:48:02.006Z,17.10
2022-12-18T12:49:01.864Z,12.70
2022-12-18T12:50:01.828Z,12.90
2022-12-18T12:51:01.791Z,16.20
2022-12-18T12:52:01.761Z,14.30
2022-12-18T12:53:01.723Z,16.40
2022-12-18T12:54:01.694Z,13.30